sensor_id;sensor_type;location;lat;lon;timestamp;pressure;altitude;pressure_sealevel;temperature;humidity
21779;BME280;11050;52.222;20.916;2024-01-15T00:02:07;98001.38;;;2.41;100.00
21779;BME280;11050;52.222;20.916;2024-01-15T00:04:38;97998.66;;;2.41;100.00
21779;BME280;11050;52.222;20.916;2024-01-15T00:07:05;97994.31;;;2.40;100.00
21779;BME280;11050;52.222;20.916;2024-01-15T00:09:30;97998.34;;;2.38;100.00
21779;BME280;11050;52.222;20.916;2024-01-15T00:11:56;97990.28;;;2.43;100.00
21779;BME280;11050;52.222;20.916;2024-01-15T00:14:23;97974.47;;;2.35;100.00
21779;BME280;11050;52.222;20.916;2024-01-15T00:16:49;97961.75;;;2.35;100.00
21779;BME280;11050;52.222;20.916;2024-01-15T00:19:18;97964.19;;;2.37;100.00
21779;BME280;11050;52.222;20.916;2024-01-15T00:21:44;97956.06;;;2.37;100.00
21779;BME280;11050;52.222;20.916;2024-01-15T00:24:10;97950.13;;;2.40;100.00
21779;BME280;11050;52.222;20.916;2024-01-15T00:26:36;97951.19;;;2.34;100.00
21779;BME280;11050;52.222;20.916;2024-01-15T00:29:02;97943.84;;;2.34;100.00
21779;BME280;11050;52.222;20.916;2024-01-15T00:31:29;97925.69;;;2.30;100.00
21779;BME280;11050;52.222;20.916;2024-01-15T00:33:56;97934.94;;;2.39;100.00
21779;BME280;11050;52.222;20.916;2024-01-15T00:36:23;97934.69;;;2.40;100.00
21779;BME280;11050;52.222;20.916;2024-01-15T00:38:49;97933.84;;;2.35;100.00
21779;BME280;11050;52.222;20.916;2024-01-15T00:41:15;97930.03;;;2.36;100.00
21779;BME280;11050;52.222;20.916;2024-01-15T00:43:41;97926.53;;;2.35;100.00
21779;BME280;11050;52.222;20.916;2024-01-15T00:46:07;97925.41;;;2.31;100.00
21779;BME280;11050;52.222;20.916;2024-01-15T00:48:33;97917.78;;;2.28;100.00
21779;BME280;11050;52.222;20.916;2024-01-15T00:50:59;97914.56;;;2.31;100.00
21779;BME280;11050;52.222;20.916;2024-01-15T00:53:25;97917.28;;;2.31;100.00
21779;BME280;11050;52.222;20.916;2024-01-15T00:55:51;97901.50;;;2.23;100.00
21779;BME280;11050;52.222;20.916;2024-01-15T00:58:17;97911.22;;;2.19;100.00
21779;BME280;11050;52.222;20.916;2024-01-15T01:00:43;97913.88;;;2.14;100.00
21779;BME280;11050;52.222;20.916;2024-01-15T01:03:09;97901.72;;;2.17;100.00
21779;BME280;11050;52.222;20.916;2024-01-15T01:05:35;97898.97;;;2.12;100.00
21779;BME280;11050;52.222;20.916;2024-01-15T01:08:00;97902.75;;;2.11;100.00
21779;BME280;11050;52.222;20.916;2024-01-15T01:10:28;97893.59;;;2.17;100.00
21779;BME280;11050;52.222;20.916;2024-01-15T01:12:53;97890.34;;;2.15;100.00
21779;BME280;11050;52.222;20.916;2024-01-15T01:15:19;97883.84;;;2.16;100.00
21779;BME280;11050;52.222;20.916;2024-01-15T01:17:45;97886.28;;;2.17;100.00
21779;BME280;11050;52.222;20.916;2024-01-15T01:20:12;97886.28;;;2.17;100.00
21779;BME280;11050;52.222;20.916;2024-01-15T01:22:39;97887.09;;;2.18;100.00
21779;BME280;11050;52.222;20.916;2024-01-15T01:25:05;97884.09;;;2.14;100.00
21779;BME280;11050;52.222;20.916;2024-01-15T01:27:31;97875.69;;;2.16;100.00
21779;BME280;11050;52.222;20.916;2024-01-15T01:29:57;97876.25;;;2.18;100.00
21779;BME280;11050;52.222;20.916;2024-01-15T01:32:23;97877.34;;;2.17;100.00
21779;BME280;11050;52.222;20.916;2024-01-15T01:34:48;97878.72;;;2.19;100.00
21779;BME280;11050;52.222;20.916;2024-01-15T01:37:14;97871.13;;;2.21;100.00
21779;BME280;11050;52.222;20.916;2024-01-15T01:39:44;97873.56;;;2.18;100.00
21779;BME280;11050;52.222;20.916;2024-01-15T01:42:10;97858.94;;;2.19;100.00
21779;BME280;11050;52.222;20.916;2024-01-15T01:44:37;97853.78;;;2.17;100.00
21779;BME280;11050;52.222;20.916;2024-01-15T01:47:04;97848.13;;;2.19;100.00
21779;BME280;11050;52.222;20.916;2024-01-15T01:49:31;97848.13;;;2.24;100.00
21779;BME280;11050;52.222;20.916;2024-01-15T01:52:00;97842.72;;;2.24;100.00
21779;BME280;11050;52.222;20.916;2024-01-15T01:54:29;97838.06;;;2.19;100.00
21779;BME280;11050;52.222;20.916;2024-01-15T01:56:56;97839.19;;;2.23;100.00
21779;BME280;11050;52.222;20.916;2024-01-15T01:59:25;97835.94;;;2.21;100.00
21779;BME280;11050;52.222;20.916;2024-01-15T02:01:54;97841.06;;;2.23;100.00
21779;BME280;11050;52.222;20.916;2024-01-15T02:04:24;97837.50;;;2.17;100.00
21779;BME280;11050;52.222;20.916;2024-01-15T02:06:51;97829.16;;;2.19;100.00
21779;BME280;11050;52.222;20.916;2024-01-15T02:09:18;97828.09;;;2.25;100.00
21779;BME280;11050;52.222;20.916;2024-01-15T02:11:46;97838.41;;;2.28;100.00
21779;BME280;11050;52.222;20.916;2024-01-15T02:14:13;97820.78;;;2.25;100.00
21779;BME280;11050;52.222;20.916;2024-01-15T02:16:39;97814.31;;;2.26;100.00
21779;BME280;11050;52.222;20.916;2024-01-15T02:19:05;97810.22;;;2.29;100.00
21779;BME280;11050;52.222;20.916;2024-01-15T02:21:32;97813.75;;;2.24;100.00
21779;BME280;11050;52.222;20.916;2024-01-15T02:23:58;97803.47;;;2.26;100.00
21779;BME280;11050;52.222;20.916;2024-01-15T02:26:24;97797.78;;;2.28;100.00
21779;BME280;11050;52.222;20.916;2024-01-15T02:28:51;97807.78;;;2.22;100.00
21779;BME280;11050;52.222;20.916;2024-01-15T02:31:17;97793.44;;;2.27;100.00
21779;BME280;11050;52.222;20.916;2024-01-15T02:33:44;97783.91;;;2.19;100.00
21779;BME280;11050;52.222;20.916;2024-01-15T02:36:11;97798.00;;;2.21;100.00
21779;BME280;11050;52.222;20.916;2024-01-15T02:38:37;97790.41;;;2.18;100.00
21779;BME280;11050;52.222;20.916;2024-01-15T02:41:04;97786.31;;;2.16;100.00
21779;BME280;11050;52.222;20.916;2024-01-15T02:43:29;97783.41;;;2.22;100.00
21779;BME280;11050;52.222;20.916;2024-01-15T02:45:55;97790.44;;;2.23;100.00
21779;BME280;11050;52.222;20.916;2024-01-15T02:48:21;97782.31;;;2.23;100.00
21779;BME280;11050;52.222;20.916;2024-01-15T02:50:46;97764.16;;;2.24;100.00
21779;BME280;11050;52.222;20.916;2024-01-15T02:53:12;97764.97;;;2.24;100.00
21779;BME280;11050;52.222;20.916;2024-01-15T02:55:38;97768.47;;;2.20;100.00
21779;BME280;11050;52.222;20.916;2024-01-15T02:58:04;97750.63;;;2.24;100.00
21779;BME280;11050;52.222;20.916;2024-01-15T03:00:30;97746.81;;;2.25;100.00
21779;BME280;11050;52.222;20.916;2024-01-15T03:02:56;97737.06;;;2.24;100.00
21779;BME280;11050;52.222;20.916;2024-01-15T03:05:22;97740.28;;;2.21;100.00
21779;BME280;11050;52.222;20.916;2024-01-15T03:07:48;97728.41;;;2.22;100.00
21779;BME280;11050;52.222;20.916;2024-01-15T03:10:13;97735.97;;;2.25;100.00
21779;BME280;11050;52.222;20.916;2024-01-15T03:12:39;97730.84;;;2.23;100.00
21779;BME280;11050;52.222;20.916;2024-01-15T03:15:05;97720.50;;;2.15;100.00
21779;BME280;11050;52.222;20.916;2024-01-15T03:17:31;97710.97;;;2.08;100.00
21779;BME280;11050;52.222;20.916;2024-01-15T03:19:57;97717.19;;;2.03;100.00
21779;BME280;11050;52.222;20.916;2024-01-15T03:22:23;97704.44;;;1.99;100.00
21779;BME280;11050;52.222;20.916;2024-01-15T03:24:49;97707.88;;;1.89;100.00
21779;BME280;11050;52.222;20.916;2024-01-15T03:27:15;97726.06;;;1.93;100.00
21779;BME280;11050;52.222;20.916;2024-01-15T03:29:41;97704.41;;;1.93;100.00
21779;BME280;11050;52.222;20.916;2024-01-15T03:32:07;97708.72;;;1.94;100.00
21779;BME280;11050;52.222;20.916;2024-01-15T03:34:32;97697.34;;;1.87;100.00
21779;BME280;11050;52.222;20.916;2024-01-15T03:36:58;97699.78;;;1.89;100.00
21779;BME280;11050;52.222;20.916;2024-01-15T03:39:25;97685.97;;;1.90;100.00
21779;BME280;11050;52.222;20.916;2024-01-15T03:41:51;97695.47;;;1.93;100.00
21779;BME280;11050;52.222;20.916;2024-01-15T03:44:16;97692.75;;;1.93;100.00
21779;BME280;11050;52.222;20.916;2024-01-15T03:46:42;97684.88;;;1.86;100.00
21779;BME280;11050;52.222;20.916;2024-01-15T03:49:08;97682.47;;;1.90;100.00
21779;BME280;11050;52.222;20.916;2024-01-15T03:51:34;97689.75;;;1.89;100.00
21779;BME280;11050;52.222;20.916;2024-01-15T03:54:00;97683.81;;;1.92;100.00
21779;BME280;11050;52.222;20.916;2024-01-15T03:56:25;97678.19;;;1.99;100.00
21779;BME280;11050;52.222;20.916;2024-01-15T03:58:51;97673.53;;;1.89;100.00
21779;BME280;11050;52.222;20.916;2024-01-15T04:01:17;97668.38;;;1.93;100.00
21779;BME280;11050;52.222;20.916;2024-01-15T04:03:42;97679.22;;;1.93;100.00
21779;BME280;11050;52.222;20.916;2024-01-15T04:06:08;97664.63;;;1.94;100.00
21779;BME280;11050;52.222;20.916;2024-01-15T04:08:34;97664.31;;;1.90;100.00
21779;BME280;11050;52.222;20.916;2024-01-15T04:11:00;97655.13;;;1.91;100.00
21779;BME280;11050;52.222;20.916;2024-01-15T04:13:27;97651.03;;;1.89;100.00
21779;BME280;11050;52.222;20.916;2024-01-15T04:15:52;97647.56;;;1.93;100.00
21779;BME280;11050;52.222;20.916;2024-01-15T04:18:18;97648.94;;;1.96;100.00
21779;BME280;11050;52.222;20.916;2024-01-15T04:20:44;97639.69;;;1.92;100.00
21779;BME280;11050;52.222;20.916;2024-01-15T04:23:10;97634.56;;;1.96;100.00
21779;BME280;11050;52.222;20.916;2024-01-15T04:25:36;97625.91;;;1.93;100.00
21779;BME280;11050;52.222;20.916;2024-01-15T04:28:02;97618.06;;;2.02;100.00
21779;BME280;11050;52.222;20.916;2024-01-15T04:30:28;97621.59;;;1.98;100.00
21779;BME280;11050;52.222;20.916;2024-01-15T04:32:53;97609.38;;;2.00;100.00
21779;BME280;11050;52.222;20.916;2024-01-15T04:35:19;97603.47;;;2.03;100.00
21779;BME280;11050;52.222;20.916;2024-01-15T04:37:45;97603.47;;;2.08;100.00
21779;BME280;11050;52.222;20.916;2024-01-15T04:40:11;97602.63;;;2.03;100.00
21779;BME280;11050;52.222;20.916;2024-01-15T04:42:37;97596.69;;;2.06;100.00
21779;BME280;11050;52.222;20.916;2024-01-15T04:45:03;97598.88;;;2.04;100.00
21779;BME280;11050;52.222;20.916;2024-01-15T04:47:29;97595.59;;;2.02;100.00
21779;BME280;11050;52.222;20.916;2024-01-15T04:49:55;97585.84;;;2.06;100.00
21779;BME280;11050;52.222;20.916;2024-01-15T04:52:20;97599.94;;;2.08;100.00
21779;BME280;11050;52.222;20.916;2024-01-15T04:54:46;97599.16;;;2.12;100.00
21779;BME280;11050;52.222;20.916;2024-01-15T04:57:12;97595.63;;;2.07;100.00
21779;BME280;11050;52.222;20.916;2024-01-15T04:59:38;97581.81;;;2.08;100.00
21779;BME280;11050;52.222;20.916;2024-01-15T05:02:03;97592.63;;;2.13;100.00
21779;BME280;11050;52.222;20.916;2024-01-15T05:04:29;97592.63;;;2.13;100.00
21779;BME280;11050;52.222;20.916;2024-01-15T05:06:55;97597.00;;;2.14;100.00
21779;BME280;11050;52.222;20.916;2024-01-15T05:09:21;97593.47;;;2.14;100.00
21779;BME280;11050;52.222;20.916;2024-01-15T05:11:47;97582.09;;;2.12;100.00
21779;BME280;11050;52.222;20.916;2024-01-15T05:14:13;97585.34;;;2.14;100.00
21779;BME280;11050;52.222;20.916;2024-01-15T05:16:39;97589.13;;;2.13;100.00
21779;BME280;11050;52.222;20.916;2024-01-15T05:19:07;97612.97;;;2.16;100.00
21779;BME280;11050;52.222;20.916;2024-01-15T05:21:33;97578.31;;;2.18;100.00
21779;BME280;11050;52.222;20.916;2024-01-15T05:23:58;97563.69;;;2.14;100.00
21779;BME280;11050;52.222;20.916;2024-01-15T05:26:24;97574.50;;;2.14;100.00
21779;BME280;11050;52.222;20.916;2024-01-15T05:28:50;97563.44;;;2.20;100.00
21779;BME280;11050;52.222;20.916;2024-01-15T05:31:15;97566.38;;;2.14;100.00
21779;BME280;11050;52.222;20.916;2024-01-15T05:33:41;97584.28;;;2.20;100.00
21779;BME280;11050;52.222;20.916;2024-01-15T05:36:07;97567.22;;;2.19;100.00
21779;BME280;11050;52.222;20.916;2024-01-15T05:38:33;97574.22;;;2.15;100.00
21779;BME280;11050;52.222;20.916;2024-01-15T05:40:58;97571.78;;;2.09;100.00
21779;BME280;11050;52.222;20.916;2024-01-15T05:43:24;97568.53;;;2.12;100.00
21779;BME280;11050;52.222;20.916;2024-01-15T05:45:50;97570.97;;;2.13;100.00
21779;BME280;11050;52.222;20.916;2024-01-15T05:48:15;97568.56;;;2.17;100.00
21779;BME280;11050;52.222;20.916;2024-01-15T05:50:41;97585.06;;;2.15;100.00
21779;BME280;11050;52.222;20.916;2024-01-15T05:53:07;97570.47;;;2.16;100.00
21779;BME280;11050;52.222;20.916;2024-01-15T05:55:35;97567.19;;;2.14;100.00
21779;BME280;11050;52.222;20.916;2024-01-15T05:58:01;97558.53;;;2.17;100.00
21779;BME280;11050;52.222;20.916;2024-01-15T06:00:27;97543.88;;;2.03;100.00
21779;BME280;11050;52.222;20.916;2024-01-15T06:02:53;97575.00;;;2.06;100.00
21779;BME280;11050;52.222;20.916;2024-01-15T06:05:18;97548.47;;;2.03;100.00
21779;BME280;11050;52.222;20.916;2024-01-15T06:07:44;97578.53;;;2.01;100.00
21779;BME280;11050;52.222;20.916;2024-01-15T06:10:10;97546.56;;;1.98;100.00
21779;BME280;11050;52.222;20.916;2024-01-15T06:12:35;97551.75;;;2.10;100.00
21779;BME280;11050;52.222;20.916;2024-01-15T06:15:01;97546.31;;;2.05;100.00
21779;BME280;11050;52.222;20.916;2024-01-15T06:17:27;97534.41;;;2.01;100.00
21779;BME280;11050;52.222;20.916;2024-01-15T06:19:53;97529.53;;;1.98;100.00
21779;BME280;11050;52.222;20.916;2024-01-15T06:22:19;97524.66;;;2.00;100.00
21779;BME280;11050;52.222;20.916;2024-01-15T06:24:45;97539.28;;;2.04;100.00
21779;BME280;11050;52.222;20.916;2024-01-15T06:27:10;97547.94;;;2.01;100.00
21779;BME280;11050;52.222;20.916;2024-01-15T06:29:38;97532.22;;;2.03;100.00
21779;BME280;11050;52.222;20.916;2024-01-15T06:32:04;97525.16;;;1.97;100.00
21779;BME280;11050;52.222;20.916;2024-01-15T06:34:30;97528.69;;;1.97;100.00
21779;BME280;11050;52.222;20.916;2024-01-15T06:36:56;97518.97;;;2.01;100.00
21779;BME280;11050;52.222;20.916;2024-01-15T06:39:22;97516.00;;;2.03;100.00
21779;BME280;11050;52.222;20.916;2024-01-15T06:41:47;97518.97;;;2.01;100.00
21779;BME280;11050;52.222;20.916;2024-01-15T06:44:13;97510.28;;;1.99;100.00
21779;BME280;11050;52.222;20.916;2024-01-15T06:46:46;97512.22;;;2.09;100.00
21779;BME280;11050;52.222;20.916;2024-01-15T06:49:12;97510.56;;;2.08;100.00
21779;BME280;11050;52.222;20.916;2024-01-15T06:51:39;97526.28;;;2.06;100.00
21779;BME280;11050;52.222;20.916;2024-01-15T06:54:05;97514.94;;;2.09;100.00
21779;BME280;11050;52.222;20.916;2024-01-15T06:56:31;97529.84;;;2.11;100.00
21779;BME280;11050;52.222;20.916;2024-01-15T06:58:58;97516.81;;;2.08;100.00
21779;BME280;11050;52.222;20.916;2024-01-15T07:01:24;97527.91;;;2.12;100.00
21779;BME280;11050;52.222;20.916;2024-01-15T07:03:49;97534.97;;;2.18;100.00
21779;BME280;11050;52.222;20.916;2024-01-15T07:06:15;97527.94;;;2.17;100.00
21779;BME280;11050;52.222;20.916;2024-01-15T07:08:42;97525.22;;;2.12;100.00
21779;BME280;11050;52.222;20.916;2024-01-15T07:11:08;97527.41;;;2.15;100.00
21779;BME280;11050;52.222;20.916;2024-01-15T07:13:36;97518.72;;;2.13;100.00
21779;BME280;11050;52.222;20.916;2024-01-15T07:16:02;97520.06;;;2.15;100.00
21779;BME280;11050;52.222;20.916;2024-01-15T07:18:28;97531.19;;;2.19;100.00
21779;BME280;11050;52.222;20.916;2024-01-15T07:20:53;97520.06;;;2.15;100.00
21779;BME280;11050;52.222;20.916;2024-01-15T07:23:19;97531.16;;;2.04;100.00
21779;BME280;11050;52.222;20.916;2024-01-15T07:25:45;97520.31;;;1.93;100.00
21779;BME280;11050;52.222;20.916;2024-01-15T07:28:11;97521.13;;;1.94;100.00
21779;BME280;11050;52.222;20.916;2024-01-15T07:30:36;97518.69;;;1.98;100.00
21779;BME280;11050;52.222;20.916;2024-01-15T07:33:05;97524.63;;;1.94;100.00
21779;BME280;11050;52.222;20.916;2024-01-15T07:35:31;97517.03;;;1.91;100.00
21779;BME280;11050;52.222;20.916;2024-01-15T07:37:57;97537.91;;;1.96;100.00
21779;BME280;11050;52.222;20.916;2024-01-15T07:40:23;97536.56;;;1.99;100.00
21779;BME280;11050;52.222;20.916;2024-01-15T07:42:51;97539.78;;;1.90;100.00
21779;BME280;11050;52.222;20.916;2024-01-15T07:45:17;97530.59;;;1.91;100.00
21779;BME280;11050;52.222;20.916;2024-01-15T07:47:43;97537.88;;;1.91;100.00
21779;BME280;11050;52.222;20.916;2024-01-15T07:50:09;97549.03;;;2.00;100.00
21779;BME280;11050;52.222;20.916;2024-01-15T07:52:35;97541.97;;;1.99;100.00
21779;BME280;11050;52.222;20.916;2024-01-15T07:55:01;97525.44;;;2.00;100.00
21779;BME280;11050;52.222;20.916;2024-01-15T07:57:29;97550.66;;;2.06;100.00
21779;BME280;11050;52.222;20.916;2024-01-15T07:59:54;97552.00;;;2.08;100.00
21779;BME280;11050;52.222;20.916;2024-01-15T08:02:20;97558.75;;;1.96;100.00
21779;BME280;11050;52.222;20.916;2024-01-15T08:04:47;97549.53;;;1.97;100.00
21779;BME280;11050;52.222;20.916;2024-01-15T08:07:13;97549.53;;;1.86;100.00
21779;BME280;11050;52.222;20.916;2024-01-15T08:09:39;97550.34;;;1.92;100.00
21779;BME280;11050;52.222;20.916;2024-01-15T08:12:05;97534.13;;;1.92;100.00
21779;BME280;11050;52.222;20.916;2024-01-15T08:14:32;97547.66;;;1.97;100.00
21779;BME280;11050;52.222;20.916;2024-01-15T08:16:57;97547.94;;;1.96;100.00
21779;BME280;11050;52.222;20.916;2024-01-15T08:19:23;97576.66;;;2.07;100.00
21779;BME280;11050;52.222;20.916;2024-01-15T08:21:49;97532.00;;;2.14;100.00
21779;BME280;11050;52.222;20.916;2024-01-15T08:24:16;97555.81;;;2.12;100.00
21779;BME280;11050;52.222;20.916;2024-01-15T08:26:42;97537.44;;;2.34;100.00
21779;BME280;11050;52.222;20.916;2024-01-15T08:29:08;97568.59;;;2.42;100.00
21779;BME280;11050;52.222;20.916;2024-01-15T08:31:34;97551.28;;;2.48;100.00
21779;BME280;11050;52.222;20.916;2024-01-15T08:34:00;97543.69;;;2.45;100.00
21779;BME280;11050;52.222;20.916;2024-01-15T08:36:27;97548.31;;;2.54;100.00
21779;BME280;11050;52.222;20.916;2024-01-15T08:38:55;97543.97;;;2.48;100.00
21779;BME280;11050;52.222;20.916;2024-01-15T08:41:21;97560.19;;;2.43;100.00
21779;BME280;11050;52.222;20.916;2024-01-15T08:43:46;97545.56;;;2.34;100.00
21779;BME280;11050;52.222;20.916;2024-01-15T08:46:12;97561.81;;;2.29;100.00
21779;BME280;11050;52.222;20.916;2024-01-15T08:48:38;97553.94;;;2.23;100.00
21779;BME280;11050;52.222;20.916;2024-01-15T08:51:05;97555.59;;;2.19;100.00
21779;BME280;11050;52.222;20.916;2024-01-15T08:53:31;97549.63;;;2.22;100.00
21779;BME280;11050;52.222;20.916;2024-01-15T08:55:58;97563.97;;;2.22;100.00
21779;BME280;11050;52.222;20.916;2024-01-15T08:58:24;97542.06;;;2.34;100.00
21779;BME280;11050;52.222;20.916;2024-01-15T09:00:50;97543.69;;;2.40;100.00
21779;BME280;11050;52.222;20.916;2024-01-15T09:03:16;97563.75;;;2.39;100.00
21779;BME280;11050;52.222;20.916;2024-01-15T09:05:42;97549.13;;;2.55;100.00
21779;BME280;11050;52.222;20.916;2024-01-15T09:08:08;97568.63;;;2.57;100.00
21779;BME280;11050;52.222;20.916;2024-01-15T09:10:34;97567.03;;;2.71;100.00
21779;BME280;11050;52.222;20.916;2024-01-15T09:13:00;97568.91;;;2.85;100.00
21779;BME280;11050;52.222;20.916;2024-01-15T09:15:26;97578.41;;;2.88;100.00
21779;BME280;11050;52.222;20.916;2024-01-15T09:17:51;97565.94;;;2.87;100.00
21779;BME280;11050;52.222;20.916;2024-01-15T09:20:17;97557.25;;;2.95;100.00
21779;BME280;11050;52.222;20.916;2024-01-15T09:22:43;97559.97;;;2.95;100.00
21779;BME280;11050;52.222;20.916;2024-01-15T09:25:10;97568.09;;;2.95;100.00
21779;BME280;11050;52.222;20.916;2024-01-15T09:27:36;97545.31;;;2.96;100.00
21779;BME280;11050;52.222;20.916;2024-01-15T09:30:04;97559.44;;;2.88;100.00
21779;BME280;11050;52.222;20.916;2024-01-15T09:32:30;97563.25;;;2.92;100.00
21779;BME280;11050;52.222;20.916;2024-01-15T09:34:56;97559.16;;;2.95;100.00
21779;BME280;11050;52.222;20.916;2024-01-15T09:37:21;97544.81;;;2.94;100.00
21779;BME280;11050;52.222;20.916;2024-01-15T09:39:49;97557.53;;;2.99;100.00
21779;BME280;11050;52.222;20.916;2024-01-15T09:42:16;97544.25;;;3.07;100.00
21779;BME280;11050;52.222;20.916;2024-01-15T09:44:42;97556.69;;;3.18;100.00
21779;BME280;11050;52.222;20.916;2024-01-15T09:47:08;97552.91;;;3.09;100.00
21779;BME280;11050;52.222;20.916;2024-01-15T09:49:35;97561.03;;;3.19;100.00
21779;BME280;11050;52.222;20.916;2024-01-15T09:52:01;97583.28;;;3.21;100.00
21779;BME280;11050;52.222;20.916;2024-01-15T09:54:27;97552.91;;;3.24;100.00
21779;BME280;11050;52.222;20.916;2024-01-15T09:56:55;97543.13;;;3.18;100.00
21779;BME280;11050;52.222;20.916;2024-01-15T09:59:24;97541.50;;;3.22;100.00
21779;BME280;11050;52.222;20.916;2024-01-15T10:01:50;97535.78;;;3.29;100.00
21779;BME280;11050;52.222;20.916;2024-01-15T10:04:17;97543.13;;;3.23;100.00
21779;BME280;11050;52.222;20.916;2024-01-15T10:06:45;97544.22;;;3.17;100.00
21779;BME280;11050;52.222;20.916;2024-01-15T10:09:14;97531.44;;;3.23;100.00
21779;BME280;11050;52.222;20.916;2024-01-15T10:11:42;97528.22;;;3.11;100.00
21779;BME280;11050;52.222;20.916;2024-01-15T10:14:12;97539.88;;;3.21;100.00
21779;BME280;11050;52.222;20.916;2024-01-15T10:16:39;97527.38;;;3.25;100.00
21779;BME280;11050;52.222;20.916;2024-01-15T10:19:05;97536.59;;;3.39;100.00
21779;BME280;11050;52.222;20.916;2024-01-15T10:21:35;97539.31;;;3.39;100.00
21779;BME280;11050;52.222;20.916;2024-01-15T10:24:03;97539.84;;;3.31;100.00
21779;BME280;11050;52.222;20.916;2024-01-15T10:26:29;97547.72;;;3.33;100.00
21779;BME280;11050;52.222;20.916;2024-01-15T10:28:55;97548.31;;;3.15;100.00
21779;BME280;11050;52.222;20.916;2024-01-15T10:31:21;97573.53;;;2.90;100.00
21779;BME280;11050;52.222;20.916;2024-01-15T10:33:50;97531.25;;;2.94;100.00
21779;BME280;11050;52.222;20.916;2024-01-15T10:36:17;97538.28;;;3.05;100.00
21779;BME280;11050;52.222;20.916;2024-01-15T10:38:47;97557.25;;;3.05;100.00
21779;BME280;11050;52.222;20.916;2024-01-15T10:41:13;97512.75;;;3.06;100.00
21779;BME280;11050;52.222;20.916;2024-01-15T10:43:39;97548.53;;;3.33;100.00
21779;BME280;11050;52.222;20.916;2024-01-15T10:46:07;97565.88;;;3.42;100.00
21779;BME280;11050;52.222;20.916;2024-01-15T10:48:33;97571.03;;;3.39;100.00
21779;BME280;11050;52.222;20.916;2024-01-15T10:51:01;97556.41;;;3.35;100.00
21779;BME280;11050;52.222;20.916;2024-01-15T10:53:38;97532.19;;;3.43;100.00
21779;BME280;11050;52.222;20.916;2024-01-15T10:56:06;97542.00;;;3.39;100.00
21779;BME280;11050;52.222;20.916;2024-01-15T10:58:34;97526.00;;;3.23;100.00
21779;BME280;11050;52.222;20.916;2024-01-15T11:01:02;97534.66;;;3.40;100.00
21779;BME280;11050;52.222;20.916;2024-01-15T11:03:28;97534.44;;;3.31;100.00
21779;BME280;11050;52.222;20.916;2024-01-15T11:05:54;97543.63;;;3.30;100.00
21779;BME280;11050;52.222;20.916;2024-01-15T11:08:20;97545.81;;;3.38;100.00
21779;BME280;11050;52.222;20.916;2024-01-15T11:10:50;97533.84;;;3.44;100.00
21779;BME280;11050;52.222;20.916;2024-01-15T11:13:21;97556.91;;;3.52;100.00
21779;BME280;11050;52.222;20.916;2024-01-15T11:16:04;97531.16;;;3.39;100.00
21779;BME280;11050;52.222;20.916;2024-01-15T11:18:42;97527.38;;;3.25;100.00
21779;BME280;11050;52.222;20.916;2024-01-15T11:23:47;97542.81;;;3.45;100.00
21779;BME280;11050;52.222;20.916;2024-01-15T11:26:36;97517.06;;;3.37;100.00
21779;BME280;11050;52.222;20.916;2024-01-15T11:32:10;97521.91;;;3.40;100.00
21779;BME280;11050;52.222;20.916;2024-01-15T11:35:01;97511.59;;;3.42;100.00
21779;BME280;11050;52.222;20.916;2024-01-15T11:40:20;97525.19;;;3.37;100.00
21779;BME280;11050;52.222;20.916;2024-01-15T11:42:47;97520.34;;;3.19;100.00
21779;BME280;11050;52.222;20.916;2024-01-15T11:45:18;97510.84;;;3.12;100.00
21779;BME280;11050;52.222;20.916;2024-01-15T11:48:14;97534.72;;;3.10;100.00
21779;BME280;11050;52.222;20.916;2024-01-15T11:50:50;97515.50;;;2.91;100.00
21779;BME280;11050;52.222;20.916;2024-01-15T11:53:43;97506.25;;;3.02;100.00
21779;BME280;11050;52.222;20.916;2024-01-15T11:56:15;97517.59;;;3.34;100.00
21779;BME280;11050;52.222;20.916;2024-01-15T11:58:43;97508.13;;;3.32;100.00
21779;BME280;11050;52.222;20.916;2024-01-15T12:01:11;97493.66;;;3.41;100.00
21779;BME280;11050;52.222;20.916;2024-01-15T12:03:37;97510.31;;;3.20;100.00
21779;BME280;11050;52.222;20.916;2024-01-15T12:06:06;97491.59;;;3.18;100.00
21779;BME280;11050;52.222;20.916;2024-01-15T12:08:32;97501.09;;;3.11;100.00
21779;BME280;11050;52.222;20.916;2024-01-15T12:10:58;97497.56;;;3.20;100.00
21779;BME280;11050;52.222;20.916;2024-01-15T12:13:24;97508.66;;;3.24;100.00
21779;BME280;11050;52.222;20.916;2024-01-15T12:15:49;97511.41;;;3.14;100.00
21779;BME280;11050;52.222;20.916;2024-01-15T12:18:18;97499.50;;;2.95;100.00
21779;BME280;11050;52.222;20.916;2024-01-15T12:20:44;97481.34;;;2.85;100.00
21779;BME280;11050;52.222;20.916;2024-01-15T12:23:12;97481.09;;;2.86;100.00
21779;BME280;11050;52.222;20.916;2024-01-15T12:25:42;97480.50;;;2.95;100.00
21779;BME280;11050;52.222;20.916;2024-01-15T12:28:08;97478.63;;;2.90;100.00
21779;BME280;11050;52.222;20.916;2024-01-15T12:30:35;97490.03;;;2.67;100.00
21779;BME280;11050;52.222;20.916;2024-01-15T12:33:06;97496.53;;;2.61;100.00
21779;BME280;11050;52.222;20.916;2024-01-15T12:35:36;97482.72;;;2.47;100.00
21779;BME280;11050;52.222;20.916;2024-01-15T12:38:02;97473.78;;;2.37;100.00
21779;BME280;11050;52.222;20.916;2024-01-15T12:40:29;97480.25;;;2.21;100.00
21779;BME280;11050;52.222;20.916;2024-01-15T12:42:55;97482.69;;;2.07;100.00
21779;BME280;11050;52.222;20.916;2024-01-15T12:45:21;97481.34;;;2.10;100.00
21779;BME280;11050;52.222;20.916;2024-01-15T12:47:46;97475.41;;;2.43;100.00
21779;BME280;11050;52.222;20.916;2024-01-15T12:50:13;97484.03;;;2.85;100.00
21779;BME280;11050;52.222;20.916;2024-01-15T12:52:41;97479.09;;;3.27;100.00
21779;BME280;11050;52.222;20.916;2024-01-15T12:55:09;97484.00;;;3.20;100.00
21779;BME280;11050;52.222;20.916;2024-01-15T12:57:35;97479.16;;;3.07;100.00